sensor_id;sensor_type;location;lat;lon;timestamp;P1;durP1;ratioP1;P2;durP2;ratioP2
13487;SDS011;6816;48.506;9.050;2024-02-21T00:01:41;4.23;;;2.97;;
13487;SDS011;6816;48.506;9.050;2024-02-21T00:04:43;4.87;;;3.43;;
13487;SDS011;6816;48.506;9.050;2024-02-21T00:07:43;5.33;;;3.60;;
13487;SDS011;6816;48.506;9.050;2024-02-21T00:10:44;6.80;;;3.33;;
13487;SDS011;6816;48.506;9.050;2024-02-21T00:13:45;4.30;;;3.17;;
13487;SDS011;6816;48.506;9.050;2024-02-21T00:16:45;7.53;;;3.53;;
13487;SDS011;6816;48.506;9.050;2024-02-21T00:19:46;5.43;;;3.07;;
13487;SDS011;6816;48.506;9.050;2024-02-21T00:22:46;4.60;;;3.00;;
13487;SDS011;6816;48.506;9.050;2024-02-21T00:25:47;4.80;;;2.93;;
13487;SDS011;6816;48.506;9.050;2024-02-21T00:28:48;5.13;;;3.03;;
13487;SDS011;6816;48.506;9.050;2024-02-21T00:31:48;5.60;;;2.97;;
13487;SDS011;6816;48.506;9.050;2024-02-21T00:34:49;4.27;;;2.93;;
13487;SDS011;6816;48.506;9.050;2024-02-21T00:37:50;4.47;;;2.93;;
13487;SDS011;6816;48.506;9.050;2024-02-21T00:40:52;6.00;;;3.20;;
13487;SDS011;6816;48.506;9.050;2024-02-21T00:43:52;3.80;;;2.80;;
13487;SDS011;6816;48.506;9.050;2024-02-21T00:46:53;5.53;;;3.00;;
13487;SDS011;6816;48.506;9.050;2024-02-21T00:49:53;5.60;;;3.30;;
13487;SDS011;6816;48.506;9.050;2024-02-21T00:52:55;8.17;;;3.47;;
13487;SDS011;6816;48.506;9.050;2024-02-21T00:55:55;4.17;;;3.10;;
13487;SDS011;6816;48.506;9.050;2024-02-21T00:58:56;4.67;;;3.13;;
13487;SDS011;6816;48.506;9.050;2024-02-21T01:01:57;3.80;;;2.93;;
13487;SDS011;6816;48.506;9.050;2024-02-21T01:04:58;4.53;;;2.80;;
13487;SDS011;6816;48.506;9.050;2024-02-21T01:07:58;4.97;;;3.60;;
13487;SDS011;6816;48.506;9.050;2024-02-21T01:10:59;5.73;;;3.10;;
13487;SDS011;6816;48.506;9.050;2024-02-21T01:13:59;5.17;;;3.07;;
13487;SDS011;6816;48.506;9.050;2024-02-21T01:17:00;5.07;;;3.23;;
13487;SDS011;6816;48.506;9.050;2024-02-21T01:20:01;4.77;;;3.10;;
13487;SDS011;6816;48.506;9.050;2024-02-21T01:23:02;5.77;;;2.90;;
13487;SDS011;6816;48.506;9.050;2024-02-21T01:26:03;3.87;;;3.07;;
13487;SDS011;6816;48.506;9.050;2024-02-21T01:29:04;3.20;;;2.70;;
13487;SDS011;6816;48.506;9.050;2024-02-21T01:32:05;4.70;;;2.40;;
13487;SDS011;6816;48.506;9.050;2024-02-21T01:35:06;3.43;;;2.73;;
13487;SDS011;6816;48.506;9.050;2024-02-21T01:38:07;3.50;;;2.77;;
13487;SDS011;6816;48.506;9.050;2024-02-21T01:41:08;3.93;;;2.70;;
13487;SDS011;6816;48.506;9.050;2024-02-21T01:44:08;4.80;;;3.37;;
13487;SDS011;6816;48.506;9.050;2024-02-21T01:47:10;6.00;;;3.23;;
13487;SDS011;6816;48.506;9.050;2024-02-21T01:50:13;3.17;;;2.47;;
13487;SDS011;6816;48.506;9.050;2024-02-21T01:53:18;5.37;;;3.50;;
13487;SDS011;6816;48.506;9.050;2024-02-21T01:56:21;3.37;;;2.60;;
13487;SDS011;6816;48.506;9.050;2024-02-21T01:59:22;3.13;;;2.60;;
13487;SDS011;6816;48.506;9.050;2024-02-21T02:02:23;5.13;;;2.67;;
13487;SDS011;6816;48.506;9.050;2024-02-21T02:05:24;4.33;;;2.70;;
13487;SDS011;6816;48.506;9.050;2024-02-21T02:08:25;3.63;;;2.60;;
13487;SDS011;6816;48.506;9.050;2024-02-21T02:11:26;4.70;;;2.90;;
13487;SDS011;6816;48.506;9.050;2024-02-21T02:14:27;3.87;;;2.60;;
13487;SDS011;6816;48.506;9.050;2024-02-21T02:17:27;5.07;;;3.10;;
13487;SDS011;6816;48.506;9.050;2024-02-21T02:20:28;5.40;;;2.60;;
13487;SDS011;6816;48.506;9.050;2024-02-21T02:23:31;3.80;;;2.60;;
13487;SDS011;6816;48.506;9.050;2024-02-21T02:26:33;6.23;;;2.70;;
13487;SDS011;6816;48.506;9.050;2024-02-21T02:29:33;3.67;;;2.53;;
13487;SDS011;6816;48.506;9.050;2024-02-21T02:32:35;4.67;;;3.00;;
13487;SDS011;6816;48.506;9.050;2024-02-21T02:35:36;4.83;;;2.53;;
13487;SDS011;6816;48.506;9.050;2024-02-21T02:38:37;3.97;;;2.60;;
13487;SDS011;6816;48.506;9.050;2024-02-21T02:41:37;5.00;;;2.60;;
13487;SDS011;6816;48.506;9.050;2024-02-21T02:44:38;5.10;;;3.07;;
13487;SDS011;6816;48.506;9.050;2024-02-21T02:47:39;6.40;;;3.03;;
13487;SDS011;6816;48.506;9.050;2024-02-21T02:50:40;9.57;;;2.70;;
13487;SDS011;6816;48.506;9.050;2024-02-21T02:53:40;4.73;;;2.73;;
13487;SDS011;6816;48.506;9.050;2024-02-21T02:56:41;3.37;;;2.30;;
13487;SDS011;6816;48.506;9.050;2024-02-21T02:59:41;3.97;;;2.37;;
13487;SDS011;6816;48.506;9.050;2024-02-21T03:02:43;4.10;;;2.63;;
13487;SDS011;6816;48.506;9.050;2024-02-21T03:05:45;4.00;;;2.53;;
13487;SDS011;6816;48.506;9.050;2024-02-21T03:08:46;4.07;;;2.60;;
13487;SDS011;6816;48.506;9.050;2024-02-21T03:11:47;4.23;;;2.43;;
13487;SDS011;6816;48.506;9.050;2024-02-21T03:14:47;3.97;;;2.87;;
13487;SDS011;6816;48.506;9.050;2024-02-21T03:17:48;5.57;;;2.93;;
13487;SDS011;6816;48.506;9.050;2024-02-21T03:20:48;6.07;;;3.00;;
13487;SDS011;6816;48.506;9.050;2024-02-21T03:23:49;6.43;;;2.80;;
13487;SDS011;6816;48.506;9.050;2024-02-21T03:26:49;4.37;;;3.00;;
13487;SDS011;6816;48.506;9.050;2024-02-21T03:29:50;4.10;;;2.67;;
13487;SDS011;6816;48.506;9.050;2024-02-21T03:32:51;3.63;;;2.37;;
13487;SDS011;6816;48.506;9.050;2024-02-21T03:35:51;3.50;;;2.90;;
13487;SDS011;6816;48.506;9.050;2024-02-21T03:38:52;4.50;;;2.63;;
13487;SDS011;6816;48.506;9.050;2024-02-21T03:41:54;4.23;;;3.00;;
13487;SDS011;6816;48.506;9.050;2024-02-21T03:44:54;5.50;;;2.50;;
13487;SDS011;6816;48.506;9.050;2024-02-21T03:47:55;4.83;;;2.63;;
13487;SDS011;6816;48.506;9.050;2024-02-21T03:50:55;6.47;;;3.10;;
13487;SDS011;6816;48.506;9.050;2024-02-21T03:53:56;5.20;;;2.63;;
13487;SDS011;6816;48.506;9.050;2024-02-21T03:56:57;7.33;;;3.03;;
13487;SDS011;6816;48.506;9.050;2024-02-21T03:59:57;5.47;;;2.40;;
13487;SDS011;6816;48.506;9.050;2024-02-21T04:02:58;4.17;;;2.50;;
13487;SDS011;6816;48.506;9.050;2024-02-21T04:05:58;4.10;;;2.30;;
13487;SDS011;6816;48.506;9.050;2024-02-21T04:09:00;3.83;;;2.43;;
13487;SDS011;6816;48.506;9.050;2024-02-21T04:12:00;3.27;;;2.20;;
13487;SDS011;6816;48.506;9.050;2024-02-21T04:15:01;3.47;;;2.77;;
13487;SDS011;6816;48.506;9.050;2024-02-21T04:18:02;2.97;;;2.17;;
13487;SDS011;6816;48.506;9.050;2024-02-21T04:21:03;3.40;;;2.37;;
13487;SDS011;6816;48.506;9.050;2024-02-21T04:24:04;4.13;;;2.10;;
13487;SDS011;6816;48.506;9.050;2024-02-21T04:27:05;5.83;;;2.53;;
13487;SDS011;6816;48.506;9.050;2024-02-21T04:30:06;3.20;;;2.00;;
13487;SDS011;6816;48.506;9.050;2024-02-21T04:33:07;4.23;;;2.50;;
13487;SDS011;6816;48.506;9.050;2024-02-21T04:36:07;3.60;;;2.27;;
13487;SDS011;6816;48.506;9.050;2024-02-21T04:39:09;6.37;;;2.80;;
13487;SDS011;6816;48.506;9.050;2024-02-21T04:42:09;4.17;;;2.57;;
13487;SDS011;6816;48.506;9.050;2024-02-21T04:45:10;4.20;;;2.40;;
13487;SDS011;6816;48.506;9.050;2024-02-21T04:48:11;3.63;;;2.47;;
13487;SDS011;6816;48.506;9.050;2024-02-21T04:51:12;4.70;;;2.57;;
13487;SDS011;6816;48.506;9.050;2024-02-21T04:54:13;3.00;;;2.17;;
13487;SDS011;6816;48.506;9.050;2024-02-21T04:57:14;4.17;;;2.27;;
13487;SDS011;6816;48.506;9.050;2024-02-21T05:00:17;3.10;;;2.17;;
13487;SDS011;6816;48.506;9.050;2024-02-21T05:03:17;4.27;;;2.30;;
13487;SDS011;6816;48.506;9.050;2024-02-21T05:06:18;3.57;;;2.70;;
13487;SDS011;6816;48.506;9.050;2024-02-21T05:09:19;3.67;;;2.50;;
13487;SDS011;6816;48.506;9.050;2024-02-21T05:12:19;3.43;;;2.40;;
13487;SDS011;6816;48.506;9.050;2024-02-21T05:15:20;4.37;;;2.27;;
13487;SDS011;6816;48.506;9.050;2024-02-21T05:18:20;6.70;;;2.33;;
13487;SDS011;6816;48.506;9.050;2024-02-21T05:21:21;4.50;;;2.60;;
13487;SDS011;6816;48.506;9.050;2024-02-21T05:24:23;3.47;;;2.53;;
13487;SDS011;6816;48.506;9.050;2024-02-21T05:27:24;4.33;;;2.50;;
13487;SDS011;6816;48.506;9.050;2024-02-21T05:30:24;5.53;;;2.60;;
13487;SDS011;6816;48.506;9.050;2024-02-21T05:33:25;3.77;;;2.57;;
13487;SDS011;6816;48.506;9.050;2024-02-21T05:36:26;3.67;;;2.20;;
13487;SDS011;6816;48.506;9.050;2024-02-21T05:39:28;3.47;;;2.67;;
13487;SDS011;6816;48.506;9.050;2024-02-21T05:42:29;4.40;;;2.80;;
13487;SDS011;6816;48.506;9.050;2024-02-21T05:45:29;3.57;;;2.37;;
13487;SDS011;6816;48.506;9.050;2024-02-21T05:48:30;2.53;;;2.30;;
13487;SDS011;6816;48.506;9.050;2024-02-21T05:51:34;5.30;;;2.87;;
13487;SDS011;6816;48.506;9.050;2024-02-21T05:54:37;4.67;;;2.57;;
13487;SDS011;6816;48.506;9.050;2024-02-21T05:57:39;3.17;;;2.10;;
13487;SDS011;6816;48.506;9.050;2024-02-21T06:00:39;5.70;;;2.60;;
13487;SDS011;6816;48.506;9.050;2024-02-21T06:03:40;3.20;;;2.37;;
13487;SDS011;6816;48.506;9.050;2024-02-21T06:06:41;2.17;;;1.90;;
13487;SDS011;6816;48.506;9.050;2024-02-21T06:09:41;2.53;;;1.80;;
13487;SDS011;6816;48.506;9.050;2024-02-21T06:12:42;3.03;;;2.00;;
13487;SDS011;6816;48.506;9.050;2024-02-21T06:15:43;2.73;;;2.10;;
13487;SDS011;6816;48.506;9.050;2024-02-21T06:18:44;3.23;;;1.93;;
13487;SDS011;6816;48.506;9.050;2024-02-21T06:21:44;3.37;;;2.10;;
13487;SDS011;6816;48.506;9.050;2024-02-21T06:24:45;2.37;;;2.00;;
13487;SDS011;6816;48.506;9.050;2024-02-21T06:27:46;2.83;;;1.80;;
13487;SDS011;6816;48.506;9.050;2024-02-21T06:30:46;3.87;;;2.40;;
13487;SDS011;6816;48.506;9.050;2024-02-21T06:33:47;3.83;;;2.10;;
13487;SDS011;6816;48.506;9.050;2024-02-21T06:36:47;4.07;;;2.20;;
13487;SDS011;6816;48.506;9.050;2024-02-21T06:39:48;2.60;;;2.10;;
13487;SDS011;6816;48.506;9.050;2024-02-21T06:42:49;5.57;;;2.20;;
13487;SDS011;6816;48.506;9.050;2024-02-21T06:45:50;6.73;;;2.30;;
13487;SDS011;6816;48.506;9.050;2024-02-21T06:48:50;3.30;;;2.43;;
13487;SDS011;6816;48.506;9.050;2024-02-21T06:51:51;5.50;;;2.60;;
13487;SDS011;6816;48.506;9.050;2024-02-21T06:54:52;3.93;;;2.50;;
13487;SDS011;6816;48.506;9.050;2024-02-21T06:57:52;4.97;;;2.30;;
13487;SDS011;6816;48.506;9.050;2024-02-21T07:00:53;3.67;;;2.33;;
13487;SDS011;6816;48.506;9.050;2024-02-21T07:03:54;3.13;;;2.20;;
13487;SDS011;6816;48.506;9.050;2024-02-21T07:06:54;6.53;;;2.80;;
13487;SDS011;6816;48.506;9.050;2024-02-21T07:09:55;4.40;;;2.13;;
13487;SDS011;6816;48.506;9.050;2024-02-21T07:12:55;2.83;;;2.20;;
13487;SDS011;6816;48.506;9.050;2024-02-21T07:15:56;2.90;;;2.17;;
13487;SDS011;6816;48.506;9.050;2024-02-21T07:18:56;3.50;;;2.57;;
13487;SDS011;6816;48.506;9.050;2024-02-21T07:21:58;4.20;;;2.43;;
13487;SDS011;6816;48.506;9.050;2024-02-21T07:24:58;3.93;;;2.30;;
13487;SDS011;6816;48.506;9.050;2024-02-21T07:27:59;2.80;;;2.20;;
13487;SDS011;6816;48.506;9.050;2024-02-21T07:30:59;5.13;;;2.37;;
13487;SDS011;6816;48.506;9.050;2024-02-21T07:34:00;4.80;;;2.37;;
13487;SDS011;6816;48.506;9.050;2024-02-21T07:37:01;4.23;;;2.30;;
13487;SDS011;6816;48.506;9.050;2024-02-21T07:40:01;6.87;;;2.87;;
13487;SDS011;6816;48.506;9.050;2024-02-21T07:43:02;5.30;;;3.00;;
13487;SDS011;6816;48.506;9.050;2024-02-21T07:46:03;4.07;;;3.37;;
13487;SDS011;6816;48.506;9.050;2024-02-21T07:49:04;5.57;;;3.10;;
13487;SDS011;6816;48.506;9.050;2024-02-21T07:52:05;4.07;;;3.10;;
13487;SDS011;6816;48.506;9.050;2024-02-21T07:55:05;5.73;;;3.60;;
13487;SDS011;6816;48.506;9.050;2024-02-21T07:58:06;4.10;;;2.97;;
13487;SDS011;6816;48.506;9.050;2024-02-21T08:01:07;6.03;;;3.23;;
13487;SDS011;6816;48.506;9.050;2024-02-21T08:04:08;3.67;;;2.83;;
13487;SDS011;6816;48.506;9.050;2024-02-21T08:07:09;5.20;;;3.30;;
13487;SDS011;6816;48.506;9.050;2024-02-21T08:10:10;4.63;;;3.20;;
13487;SDS011;6816;48.506;9.050;2024-02-21T08:13:10;5.23;;;2.97;;
13487;SDS011;6816;48.506;9.050;2024-02-21T08:16:11;4.50;;;2.70;;
13487;SDS011;6816;48.506;9.050;2024-02-21T08:19:11;6.70;;;2.93;;
13487;SDS011;6816;48.506;9.050;2024-02-21T08:22:12;3.63;;;2.90;;
13487;SDS011;6816;48.506;9.050;2024-02-21T08:25:13;4.60;;;2.90;;
13487;SDS011;6816;48.506;9.050;2024-02-21T08:28:13;5.07;;;2.23;;
13487;SDS011;6816;48.506;9.050;2024-02-21T08:31:20;4.27;;;2.50;;
13487;SDS011;6816;48.506;9.050;2024-02-21T08:34:21;4.63;;;2.90;;
13487;SDS011;6816;48.506;9.050;2024-02-21T08:37:21;5.53;;;2.80;;
13487;SDS011;6816;48.506;9.050;2024-02-21T08:40:22;3.63;;;2.13;;
13487;SDS011;6816;48.506;9.050;2024-02-21T08:43:22;5.00;;;2.50;;
13487;SDS011;6816;48.506;9.050;2024-02-21T08:46:23;3.37;;;2.33;;
13487;SDS011;6816;48.506;9.050;2024-02-21T08:49:24;4.83;;;2.73;;
13487;SDS011;6816;48.506;9.050;2024-02-21T08:52:28;5.77;;;2.80;;
13487;SDS011;6816;48.506;9.050;2024-02-21T08:55:29;5.30;;;2.60;;
13487;SDS011;6816;48.506;9.050;2024-02-21T08:58:29;4.80;;;2.67;;
13487;SDS011;6816;48.506;9.050;2024-02-21T09:01:30;3.70;;;2.43;;
13487;SDS011;6816;48.506;9.050;2024-02-21T09:04:30;3.77;;;2.90;;
13487;SDS011;6816;48.506;9.050;2024-02-21T09:07:31;3.70;;;2.60;;
13487;SDS011;6816;48.506;9.050;2024-02-21T09:10:32;4.97;;;3.00;;
13487;SDS011;6816;48.506;9.050;2024-02-21T09:13:32;5.53;;;3.03;;
13487;SDS011;6816;48.506;9.050;2024-02-21T09:16:33;4.90;;;2.60;;
13487;SDS011;6816;48.506;9.050;2024-02-21T09:19:35;5.97;;;3.10;;
13487;SDS011;6816;48.506;9.050;2024-02-21T09:22:35;7.03;;;2.80;;
13487;SDS011;6816;48.506;9.050;2024-02-21T09:25:37;4.33;;;2.33;;
13487;SDS011;6816;48.506;9.050;2024-02-21T09:28:38;5.77;;;2.90;;
13487;SDS011;6816;48.506;9.050;2024-02-21T09:31:38;4.10;;;2.43;;
13487;SDS011;6816;48.506;9.050;2024-02-21T09:34:39;6.00;;;3.07;;
13487;SDS011;6816;48.506;9.050;2024-02-21T09:37:39;6.93;;;3.10;;
13487;SDS011;6816;48.506;9.050;2024-02-21T09:40:40;5.03;;;3.10;;
13487;SDS011;6816;48.506;9.050;2024-02-21T09:43:42;4.97;;;3.10;;
13487;SDS011;6816;48.506;9.050;2024-02-21T09:46:52;3.90;;;3.20;;
13487;SDS011;6816;48.506;9.050;2024-02-21T09:50:03;4.70;;;3.00;;
13487;SDS011;6816;48.506;9.050;2024-02-21T09:53:05;6.03;;;2.87;;
13487;SDS011;6816;48.506;9.050;2024-02-21T09:56:11;4.20;;;2.80;;
13487;SDS011;6816;48.506;9.050;2024-02-21T09:59:13;5.37;;;2.73;;
13487;SDS011;6816;48.506;9.050;2024-02-21T10:02:15;4.67;;;2.70;;
13487;SDS011;6816;48.506;9.050;2024-02-21T10:05:16;5.27;;;2.40;;
13487;SDS011;6816;48.506;9.050;2024-02-21T10:08:18;5.97;;;2.37;;
13487;SDS011;6816;48.506;9.050;2024-02-21T10:11:23;5.47;;;2.20;;
13487;SDS011;6816;48.506;9.050;2024-02-21T10:14:25;5.33;;;2.50;;
13487;SDS011;6816;48.506;9.050;2024-02-21T10:17:26;2.30;;;2.00;;
13487;SDS011;6816;48.506;9.050;2024-02-21T10:20:27;5.33;;;2.27;;
13487;SDS011;6816;48.506;9.050;2024-02-21T10:23:28;3.40;;;1.80;;
13487;SDS011;6816;48.506;9.050;2024-02-21T10:26:28;3.07;;;1.67;;
13487;SDS011;6816;48.506;9.050;2024-02-21T10:29:32;3.83;;;1.87;;
13487;SDS011;6816;48.506;9.050;2024-02-21T10:32:33;4.33;;;1.70;;
13487;SDS011;6816;48.506;9.050;2024-02-21T10:35:34;2.50;;;1.83;;
13487;SDS011;6816;48.506;9.050;2024-02-21T10:38:35;3.90;;;1.70;;
13487;SDS011;6816;48.506;9.050;2024-02-21T10:41:37;4.97;;;1.60;;
13487;SDS011;6816;48.506;9.050;2024-02-21T10:44:38;4.93;;;1.90;;
13487;SDS011;6816;48.506;9.050;2024-02-21T10:47:40;3.33;;;1.70;;
13487;SDS011;6816;48.506;9.050;2024-02-21T10:57:37;3.00;;;1.50;;
13487;SDS011;6816;48.506;9.050;2024-02-21T11:00:38;3.00;;;1.37;;
13487;SDS011;6816;48.506;9.050;2024-02-21T11:03:39;3.37;;;2.13;;
13487;SDS011;6816;48.506;9.050;2024-02-21T11:06:44;2.67;;;1.53;;
13487;SDS011;6816;48.506;9.050;2024-02-21T11:09:52;3.27;;;1.50;;
13487;SDS011;6816;48.506;9.050;2024-02-21T11:13:07;2.33;;;1.33;;
13487;SDS011;6816;48.506;9.050;2024-02-21T11:16:09;2.53;;;1.37;;
13487;SDS011;6816;48.506;9.050;2024-02-21T11:19:19;3.47;;;1.20;;
13487;SDS011;6816;48.506;9.050;2024-02-21T11:22:21;2.90;;;1.17;;
13487;SDS011;6816;48.506;9.050;2024-02-21T11:25:24;2.27;;;1.30;;
13487;SDS011;6816;48.506;9.050;2024-02-21T11:28:25;3.20;;;1.23;;
13487;SDS011;6816;48.506;9.050;2024-02-21T11:31:26;2.60;;;1.30;;
13487;SDS011;6816;48.506;9.050;2024-02-21T11:34:27;1.93;;;1.30;;
13487;SDS011;6816;48.506;9.050;2024-02-21T11:37:28;7.00;;;2.33;;
13487;SDS011;6816;48.506;9.050;2024-02-21T11:40:29;1.40;;;1.00;;
13487;SDS011;6816;48.506;9.050;2024-02-21T11:43:29;3.37;;;1.33;;
13487;SDS011;6816;48.506;9.050;2024-02-21T11:46:30;2.50;;;1.40;;
13487;SDS011;6816;48.506;9.050;2024-02-21T11:49:35;3.57;;;1.17;;
13487;SDS011;6816;48.506;9.050;2024-02-21T11:52:38;1.70;;;1.23;;
13487;SDS011;6816;48.506;9.050;2024-02-21T11:55:38;1.23;;;1.13;;
13487;SDS011;6816;48.506;9.050;2024-02-21T11:58:39;1.57;;;1.10;;
13487;SDS011;6816;48.506;9.050;2024-02-21T12:01:39;2.47;;;1.30;;
13487;SDS011;6816;48.506;9.050;2024-02-21T12:04:40;2.60;;;1.00;;
13487;SDS011;6816;48.506;9.050;2024-02-21T12:07:43;1.53;;;0.80;;
13487;SDS011;6816;48.506;9.050;2024-02-21T12:10:44;3.03;;;1.13;;
13487;SDS011;6816;48.506;9.050;2024-02-21T12:13:44;2.53;;;1.10;;
13487;SDS011;6816;48.506;9.050;2024-02-21T12:16:45;2.23;;;1.37;;
13487;SDS011;6816;48.506;9.050;2024-02-21T12:19:47;3.27;;;1.37;;
13487;SDS011;6816;48.506;9.050;2024-02-21T12:22:49;2.23;;;1.10;;
13487;SDS011;6816;48.506;9.050;2024-02-21T12:25:51;1.10;;;1.00;;
13487;SDS011;6816;48.506;9.050;2024-02-21T12:28:54;2.47;;;1.00;;
13487;SDS011;6816;48.506;9.050;2024-02-21T12:31:55;3.30;;;1.10;;
13487;SDS011;6816;48.506;9.050;2024-02-21T12:34:56;2.00;;;1.13;;
13487;SDS011;6816;48.506;9.050;2024-02-21T12:37:56;2.20;;;1.10;;
13487;SDS011;6816;48.506;9.050;2024-02-21T12:40:57;2.27;;;1.20;;
13487;SDS011;6816;48.506;9.050;2024-02-21T12:43:57;1.77;;;1.07;;
13487;SDS011;6816;48.506;9.050;2024-02-21T12:46:58;1.97;;;1.17;;
13487;SDS011;6816;48.506;9.050;2024-02-21T12:49:58;4.87;;;1.40;;
13487;SDS011;6816;48.506;9.050;2024-02-21T12:52:59;2.23;;;1.00;;
13487;SDS011;6816;48.506;9.050;2024-02-21T12:56:00;3.00;;;1.30;;
13487;SDS011;6816;48.506;9.050;2024-02-21T12:59:01;2.00;;;1.40;;
13487;SDS011;6816;48.506;9.050;2024-02-21T13:02:02;2.17;;;1.20;;
13487;SDS011;6816;48.506;9.050;2024-02-21T13:05:02;3.23;;;1.40;;
13487;SDS011;6816;48.506;9.050;2024-02-21T13:08:08;2.10;;;1.20;;
13487;SDS011;6816;48.506;9.050;2024-02-21T13:11:09;1.70;;;1.03;;
13487;SDS011;6816;48.506;9.050;2024-02-21T13:14:11;2.73;;;1.10;;
13487;SDS011;6816;48.506;9.050;2024-02-21T13:17:11;2.70;;;1.30;;
13487;SDS011;6816;48.506;9.050;2024-02-21T13:20:12;1.40;;;1.20;;
13487;SDS011;6816;48.506;9.050;2024-02-21T13:23:13;3.23;;;1.30;;
13487;SDS011;6816;48.506;9.050;2024-02-21T13:26:14;2.03;;;1.23;;
13487;SDS011;6816;48.506;9.050;2024-02-21T13:29:15;2.07;;;1.00;;
13487;SDS011;6816;48.506;9.050;2024-02-21T13:32:16;1.93;;;1.37;;
13487;SDS011;6816;48.506;9.050;2024-02-21T13:35:16;2.77;;;1.30;;
13487;SDS011;6816;48.506;9.050;2024-02-21T13:38:17;3.53;;;1.13;;
13487;SDS011;6816;48.506;9.050;2024-02-21T13:41:19;2.40;;;1.23;;
13487;SDS011;6816;48.506;9.050;2024-02-21T13:44:22;1.87;;;1.03;;
13487;SDS011;6816;48.506;9.050;2024-02-21T13:47:22;3.47;;;1.30;;
13487;SDS011;6816;48.506;9.050;2024-02-21T13:50:27;1.43;;;1.17;;
13487;SDS011;6816;48.506;9.050;2024-02-21T13:53:30;2.43;;;1.10;;
13487;SDS011;6816;48.506;9.050;2024-02-21T13:56:30;1.30;;;1.20;;
13487;SDS011;6816;48.506;9.050;2024-02-21T13:59:31;1.50;;;1.07;;
13487;SDS011;6816;48.506;9.050;2024-02-21T14:02:33;1.70;;;0.97;;
13487;SDS011;6816;48.506;9.050;2024-02-21T14:05:34;1.57;;;1.00;;
13487;SDS011;6816;48.506;9.050;2024-02-21T14:08:34;2.57;;;0.90;;
13487;SDS011;6816;48.506;9.050;2024-02-21T14:11:35;1.83;;;1.00;;
13487;SDS011;6816;48.506;9.050;2024-02-21T14:14:37;1.87;;;1.00;;
13487;SDS011;6816;48.506;9.050;2024-02-21T14:17:38;2.83;;;1.20;;
13487;SDS011;6816;48.506;9.050;2024-02-21T14:20:42;2.13;;;1.20;;
13487;SDS011;6816;48.506;9.050;2024-02-21T14:23:43;1.13;;;1.00;;
13487;SDS011;6816;48.506;9.050;2024-02-21T14:26:44;2.23;;;0.90;;
13487;SDS011;6816;48.506;9.050;2024-02-21T14:29:45;2.70;;;1.00;;
13487;SDS011;6816;48.506;9.050;2024-02-21T14:32:45;3.10;;;1.17;;
13487;SDS011;6816;48.506;9.050;2024-02-21T14:35:46;0.97;;;0.87;;
13487;SDS011;6816;48.506;9.050;2024-02-21T14:38:47;1.57;;;0.90;;
13487;SDS011;6816;48.506;9.050;2024-02-21T14:41:47;1.13;;;0.80;;
13487;SDS011;6816;48.506;9.050;2024-02-21T14:44:48;1.90;;;1.00;;
13487;SDS011;6816;48.506;9.050;2024-02-21T14:47:48;1.87;;;1.10;;
13487;SDS011;6816;48.506;9.050;2024-02-21T14:50:49;2.43;;;1.10;;
13487;SDS011;6816;48.506;9.050;2024-02-21T14:53:49;1.57;;;0.80;;
13487;SDS011;6816;48.506;9.050;2024-02-21T14:56:50;1.00;;;0.80;;
13487;SDS011;6816;48.506;9.050;2024-02-21T14:59:51;3.13;;;1.00;;
13487;SDS011;6816;48.506;9.050;2024-02-21T15:02:56;1.30;;;0.70;;
13487;SDS011;6816;48.506;9.050;2024-02-21T15:05:57;0.83;;;0.80;;
13487;SDS011;6816;48.506;9.050;2024-02-21T15:08:58;3.20;;;1.37;;
13487;SDS011;6816;48.506;9.050;2024-02-21T15:11:58;1.43;;;1.00;;
13487;SDS011;6816;48.506;9.050;2024-02-21T15:14:59;2.20;;;0.80;;
13487;SDS011;6816;48.506;9.050;2024-02-21T15:18:00;1.30;;;0.73;;
13487;SDS011;6816;48.506;9.050;2024-02-21T15:21:00;1.53;;;0.90;;
13487;SDS011;6816;48.506;9.050;2024-02-21T15:24:01;2.83;;;1.00;;
13487;SDS011;6816;48.506;9.050;2024-02-21T15:27:03;2.87;;;1.40;;
13487;SDS011;6816;48.506;9.050;2024-02-21T15:30:04;3.73;;;1.70;;
13487;SDS011;6816;48.506;9.050;2024-02-21T15:33:05;2.23;;;1.37;;
13487;SDS011;6816;48.506;9.050;2024-02-21T15:36:06;2.77;;;1.60;;
13487;SDS011;6816;48.506;9.050;2024-02-21T15:39:07;2.67;;;1.90;;
13487;SDS011;6816;48.506;9.050;2024-02-21T15:42:08;2.07;;;1.50;;
13487;SDS011;6816;48.506;9.050;2024-02-21T15:45:09;2.27;;;1.90;;
13487;SDS011;6816;48.506;9.050;2024-02-21T15:48:09;2.27;;;1.60;;
13487;SDS011;6816;48.506;9.050;2024-02-21T15:51:10;3.97;;;1.67;;
13487;SDS011;6816;48.506;9.050;2024-02-21T15:54:10;2.40;;;1.93;;
13487;SDS011;6816;48.506;9.050;2024-02-21T15:57:11;1.90;;;1.50;;
13487;SDS011;6816;48.506;9.050;2024-02-21T16:00:12;3.17;;;1.40;;
13487;SDS011;6816;48.506;9.050;2024-02-21T16:03:13;1.30;;;1.20;;
13487;SDS011;6816;48.506;9.050;2024-02-21T16:06:13;3.07;;;1.30;;
13487;SDS011;6816;48.506;9.050;2024-02-21T16:09:14;2.20;;;1.60;;
13487;SDS011;6816;48.506;9.050;2024-02-21T16:12:15;3.00;;;1.70;;
13487;SDS011;6816;48.506;9.050;2024-02-21T16:15:16;1.60;;;1.23;;
13487;SDS011;6816;48.506;9.050;2024-02-21T16:18:17;1.87;;;1.40;;
13487;SDS011;6816;48.506;9.050;2024-02-21T16:21:20;2.10;;;1.53;;
13487;SDS011;6816;48.506;9.050;2024-02-21T16:24:21;3.40;;;1.83;;
13487;SDS011;6816;48.506;9.050;2024-02-21T16:27:21;3.30;;;2.60;;
13487;SDS011;6816;48.506;9.050;2024-02-21T16:30:22;3.23;;;2.00;;
13487;SDS011;6816;48.506;9.050;2024-02-21T16:33:24;3.93;;;2.37;;
13487;SDS011;6816;48.506;9.050;2024-02-21T16:36:25;4.17;;;2.70;;
13487;SDS011;6816;48.506;9.050;2024-02-21T16:39:25;3.60;;;2.47;;
13487;SDS011;6816;48.506;9.050;2024-02-21T16:42:26;4.43;;;2.07;;
13487;SDS011;6816;48.506;9.050;2024-02-21T16:45:26;2.80;;;2.13;;
13487;SDS011;6816;48.506;9.050;2024-02-21T16:48:28;2.23;;;2.03;;
13487;SDS011;6816;48.506;9.050;2024-02-21T16:51:29;3.07;;;2.07;;
13487;SDS011;6816;48.506;9.050;2024-02-21T16:54:30;3.93;;;2.67;;
13487;SDS011;6816;48.506;9.050;2024-02-21T16:57:30;5.03;;;2.40;;
13487;SDS011;6816;48.506;9.050;2024-02-21T17:00:31;5.03;;;3.57;;
13487;SDS011;6816;48.506;9.050;2024-02-21T17:03:33;5.63;;;3.53;;
13487;SDS011;6816;48.506;9.050;2024-02-21T17:06:34;5.70;;;3.40;;
13487;SDS011;6816;48.506;9.050;2024-02-21T17:09:35;4.40;;;3.43;;
13487;SDS011;6816;48.506;9.050;2024-02-21T17:12:36;3.80;;;2.23;;
13487;SDS011;6816;48.506;9.050;2024-02-21T17:15:37;2.83;;;2.10;;
13487;SDS011;6816;48.506;9.050;2024-02-21T17:18:37;2.63;;;1.90;;
13487;SDS011;6816;48.506;9.050;2024-02-21T17:21:38;3.20;;;1.60;;
13487;SDS011;6816;48.506;9.050;2024-02-21T17:24:39;2.67;;;1.53;;
13487;SDS011;6816;48.506;9.050;2024-02-21T17:27:40;1.70;;;1.20;;
13487;SDS011;6816;48.506;9.050;2024-02-21T17:30:40;3.53;;;1.37;;
13487;SDS011;6816;48.506;9.050;2024-02-21T17:33:41;1.47;;;1.00;;
13487;SDS011;6816;48.506;9.050;2024-02-21T17:36:41;2.73;;;0.70;;
13487;SDS011;6816;48.506;9.050;2024-02-21T17:39:42;0.80;;;0.70;;
13487;SDS011;6816;48.506;9.050;2024-02-21T17:42:42;1.50;;;0.83;;
13487;SDS011;6816;48.506;9.050;2024-02-21T17:45:43;1.53;;;0.83;;
13487;SDS011;6816;48.506;9.050;2024-02-21T17:48:44;1.20;;;0.83;;
13487;SDS011;6816;48.506;9.050;2024-02-21T17:51:44;3.93;;;1.40;;
13487;SDS011;6816;48.506;9.050;2024-02-21T17:54:45;1.87;;;1.30;;
13487;SDS011;6816;48.506;9.050;2024-02-21T17:57:47;2.37;;;1.47;;
13487;SDS011;6816;48.506;9.050;2024-02-21T18:00:47;5.30;;;1.93;;
13487;SDS011;6816;48.506;9.050;2024-02-21T18:03:48;4.40;;;1.80;;
13487;SDS011;6816;48.506;9.050;2024-02-21T18:06:48;4.53;;;1.60;;
13487;SDS011;6816;48.506;9.050;2024-02-21T18:09:49;5.80;;;1.77;;
13487;SDS011;6816;48.506;9.050;2024-02-21T18:12:50;3.03;;;2.23;;
13487;SDS011;6816;48.506;9.050;2024-02-21T18:15:51;4.13;;;2.03;;
13487;SDS011;6816;48.506;9.050;2024-02-21T18:18:51;2.53;;;1.50;;
13487;SDS011;6816;48.506;9.050;2024-02-21T18:21:52;2.53;;;1.20;;
13487;SDS011;6816;48.506;9.050;2024-02-21T18:24:52;3.53;;;1.70;;
13487;SDS011;6816;48.506;9.050;2024-02-21T18:27:53;2.83;;;1.83;;
13487;SDS011;6816;48.506;9.050;2024-02-21T18:30:54;1.40;;;1.13;;
13487;SDS011;6816;48.506;9.050;2024-02-21T18:33:55;2.00;;;1.60;;